sensor_id;sensor_type;location;lat;lon;timestamp;P1;durP1;ratioP1;P2;durP2;ratioP2
1525;SDS011;756;49.982;8.240;2022-08-01T00:00:04;1.77;;;1.33;;
1525;SDS011;756;49.982;8.240;2022-08-01T00:02:34;2.10;;;1.60;;
1525;SDS011;756;49.982;8.240;2022-08-01T00:05:02;1.50;;;1.40;;
1525;SDS011;756;49.982;8.240;2022-08-01T00:07:32;1.73;;;1.50;;
1525;SDS011;756;49.982;8.240;2022-08-01T00:10:00;1.57;;;1.30;;
1525;SDS011;756;49.982;8.240;2022-08-01T00:12:28;4.50;;;1.60;;
1525;SDS011;756;49.982;8.240;2022-08-01T00:14:55;1.50;;;1.40;;
1525;SDS011;756;49.982;8.240;2022-08-01T00:17:22;2.53;;;1.50;;
1525;SDS011;756;49.982;8.240;2022-08-01T00:19:49;1.57;;;1.00;;
1525;SDS011;756;49.982;8.240;2022-08-01T00:22:16;2.10;;;1.30;;
1525;SDS011;756;49.982;8.240;2022-08-01T00:24:43;1.53;;;1.00;;
1525;SDS011;756;49.982;8.240;2022-08-01T00:27:09;1.50;;;1.40;;
1525;SDS011;756;49.982;8.240;2022-08-01T00:29:36;1.43;;;1.20;;
1525;SDS011;756;49.982;8.240;2022-08-01T00:32:23;1.87;;;1.50;;
1525;SDS011;756;49.982;8.240;2022-08-01T00:34:50;1.50;;;1.40;;
1525;SDS011;756;49.982;8.240;2022-08-01T00:37:17;1.20;;;1.10;;
1525;SDS011;756;49.982;8.240;2022-08-01T00:39:44;2.40;;;1.40;;
1525;SDS011;756;49.982;8.240;2022-08-01T00:42:11;3.30;;;1.50;;
1525;SDS011;756;49.982;8.240;2022-08-01T00:44:39;1.63;;;1.53;;
1525;SDS011;756;49.982;8.240;2022-08-01T00:47:06;1.40;;;1.30;;
1525;SDS011;756;49.982;8.240;2022-08-01T00:49:33;2.80;;;1.70;;
1525;SDS011;756;49.982;8.240;2022-08-01T00:52:01;1.47;;;1.37;;
1525;SDS011;756;49.982;8.240;2022-08-01T00:54:31;1.33;;;1.23;;
1525;SDS011;756;49.982;8.240;2022-08-01T00:56:58;1.53;;;1.40;;
1525;SDS011;756;49.982;8.240;2022-08-01T00:59:25;2.47;;;1.57;;
1525;SDS011;756;49.982;8.240;2022-08-01T01:01:53;1.60;;;1.27;;
1525;SDS011;756;49.982;8.240;2022-08-01T01:04:21;1.50;;;1.00;;
1525;SDS011;756;49.982;8.240;2022-08-01T01:17:24;2.20;;;1.00;;
1525;SDS011;756;49.982;8.240;2022-08-01T01:20:16;1.93;;;1.20;;
1525;SDS011;756;49.982;8.240;2022-08-01T01:25:29;1.50;;;1.40;;
1525;SDS011;756;49.982;8.240;2022-08-01T01:28:09;1.43;;;1.23;;
1525;SDS011;756;49.982;8.240;2022-08-01T01:30:58;1.10;;;1.00;;
1525;SDS011;756;49.982;8.240;2022-08-01T01:33:29;1.23;;;1.13;;
1525;SDS011;756;49.982;8.240;2022-08-01T01:36:01;1.30;;;1.00;;
1525;SDS011;756;49.982;8.240;2022-08-01T01:38:41;2.03;;;1.30;;
1525;SDS011;756;49.982;8.240;2022-08-01T01:41:11;2.63;;;1.30;;
1525;SDS011;756;49.982;8.240;2022-08-01T01:43:40;1.53;;;1.40;;
1525;SDS011;756;49.982;8.240;2022-08-01T01:46:07;1.53;;;1.37;;
1525;SDS011;756;49.982;8.240;2022-08-01T01:48:37;1.40;;;1.30;;
1525;SDS011;756;49.982;8.240;2022-08-01T01:51:06;1.73;;;1.13;;
1525;SDS011;756;49.982;8.240;2022-08-01T01:53:34;1.40;;;1.30;;
1525;SDS011;756;49.982;8.240;2022-08-01T01:56:02;3.90;;;1.50;;
1525;SDS011;756;49.982;8.240;2022-08-01T01:58:30;1.57;;;1.10;;
1525;SDS011;756;49.982;8.240;2022-08-01T02:00:59;1.40;;;1.30;;
1525;SDS011;756;49.982;8.240;2022-08-01T02:03:29;1.53;;;1.43;;
1525;SDS011;756;49.982;8.240;2022-08-01T02:05:57;1.83;;;1.40;;
1525;SDS011;756;49.982;8.240;2022-08-01T02:08:26;4.00;;;1.17;;
1525;SDS011;756;49.982;8.240;2022-08-01T02:10:57;2.03;;;1.40;;
1525;SDS011;756;49.982;8.240;2022-08-01T02:13:44;1.30;;;1.20;;
1525;SDS011;756;49.982;8.240;2022-08-01T02:16:17;1.30;;;1.20;;
1525;SDS011;756;49.982;8.240;2022-08-01T02:18:44;2.17;;;1.43;;
1525;SDS011;756;49.982;8.240;2022-08-01T02:21:12;1.40;;;1.30;;
1525;SDS011;756;49.982;8.240;2022-08-01T02:23:46;1.63;;;1.20;;
1525;SDS011;756;49.982;8.240;2022-08-01T02:26:14;3.27;;;1.50;;
1525;SDS011;756;49.982;8.240;2022-08-01T02:28:54;1.80;;;1.30;;
1525;SDS011;756;49.982;8.240;2022-08-01T02:31:25;1.33;;;1.17;;
1525;SDS011;756;49.982;8.240;2022-08-01T02:33:57;1.40;;;1.30;;
1525;SDS011;756;49.982;8.240;2022-08-01T02:36:28;1.40;;;1.30;;
1525;SDS011;756;49.982;8.240;2022-08-01T02:38:59;1.60;;;1.50;;
1525;SDS011;756;49.982;8.240;2022-08-01T02:41:29;5.13;;;1.60;;
1525;SDS011;756;49.982;8.240;2022-08-01T02:43:58;1.30;;;1.20;;
1525;SDS011;756;49.982;8.240;2022-08-01T02:46:30;4.70;;;1.30;;
1525;SDS011;756;49.982;8.240;2022-08-01T02:49:12;1.83;;;1.13;;
1525;SDS011;756;49.982;8.240;2022-08-01T02:51:41;1.30;;;1.20;;
1525;SDS011;756;49.982;8.240;2022-08-01T02:54:10;2.33;;;0.87;;
1525;SDS011;756;49.982;8.240;2022-08-01T02:56:38;2.30;;;1.20;;
1525;SDS011;756;49.982;8.240;2022-08-01T02:59:07;2.03;;;1.10;;
1525;SDS011;756;49.982;8.240;2022-08-01T03:01:39;1.40;;;1.30;;
1525;SDS011;756;49.982;8.240;2022-08-01T03:04:08;2.37;;;1.37;;
1525;SDS011;756;49.982;8.240;2022-08-01T03:06:36;2.20;;;1.30;;
1525;SDS011;756;49.982;8.240;2022-08-01T03:09:05;1.43;;;1.33;;
1525;SDS011;756;49.982;8.240;2022-08-01T03:11:34;1.20;;;1.10;;
1525;SDS011;756;49.982;8.240;2022-08-01T03:14:05;1.60;;;1.40;;
1525;SDS011;756;49.982;8.240;2022-08-01T03:16:35;1.57;;;1.27;;
1525;SDS011;756;49.982;8.240;2022-08-01T03:19:04;1.53;;;1.00;;
1525;SDS011;756;49.982;8.240;2022-08-01T03:21:33;4.20;;;1.57;;
1525;SDS011;756;49.982;8.240;2022-08-01T03:24:01;1.80;;;1.20;;
1525;SDS011;756;49.982;8.240;2022-08-01T03:26:32;1.40;;;1.30;;
1525;SDS011;756;49.982;8.240;2022-08-01T03:29:06;1.60;;;1.50;;
1525;SDS011;756;49.982;8.240;2022-08-01T03:31:37;1.40;;;1.30;;
1525;SDS011;756;49.982;8.240;2022-08-01T03:34:08;1.60;;;1.33;;
1525;SDS011;756;49.982;8.240;2022-08-01T03:36:38;1.63;;;1.47;;
1525;SDS011;756;49.982;8.240;2022-08-01T03:39:30;1.30;;;1.20;;
1525;SDS011;756;49.982;8.240;2022-08-01T03:42:05;1.30;;;1.20;;
1525;SDS011;756;49.982;8.240;2022-08-01T03:44:36;1.57;;;1.47;;
1525;SDS011;756;49.982;8.240;2022-08-01T03:47:08;2.10;;;1.90;;
1525;SDS011;756;49.982;8.240;2022-08-01T03:49:38;2.73;;;1.47;;
1525;SDS011;756;49.982;8.240;2022-08-01T03:52:09;3.33;;;1.40;;
1525;SDS011;756;49.982;8.240;2022-08-01T03:54:38;1.50;;;1.40;;
1525;SDS011;756;49.982;8.240;2022-08-01T03:57:08;1.57;;;1.30;;
1525;SDS011;756;49.982;8.240;2022-08-01T03:59:56;1.93;;;1.40;;
1525;SDS011;756;49.982;8.240;2022-08-01T04:02:25;1.97;;;1.60;;
1525;SDS011;756;49.982;8.240;2022-08-01T04:04:55;1.60;;;1.50;;
1525;SDS011;756;49.982;8.240;2022-08-01T04:07:26;3.57;;;1.40;;
1525;SDS011;756;49.982;8.240;2022-08-01T04:09:54;1.23;;;1.13;;
1525;SDS011;756;49.982;8.240;2022-08-01T04:12:21;3.50;;;1.40;;
1525;SDS011;756;49.982;8.240;2022-08-01T04:14:48;2.90;;;1.60;;
1525;SDS011;756;49.982;8.240;2022-08-01T04:17:16;2.50;;;1.50;;
1525;SDS011;756;49.982;8.240;2022-08-01T04:19:42;1.27;;;1.17;;
1525;SDS011;756;49.982;8.240;2022-08-01T04:22:10;1.50;;;1.40;;
1525;SDS011;756;49.982;8.240;2022-08-01T04:24:46;2.17;;;1.40;;
1525;SDS011;756;49.982;8.240;2022-08-01T04:27:23;1.70;;;1.60;;
1525;SDS011;756;49.982;8.240;2022-08-01T04:30:16;2.83;;;1.70;;
1525;SDS011;756;49.982;8.240;2022-08-01T04:32:46;2.13;;;1.30;;
1525;SDS011;756;49.982;8.240;2022-08-01T04:35:14;1.57;;;1.47;;
1525;SDS011;756;49.982;8.240;2022-08-01T04:38:04;1.60;;;1.50;;
1525;SDS011;756;49.982;8.240;2022-08-01T04:40:31;3.37;;;1.83;;
1525;SDS011;756;49.982;8.240;2022-08-01T04:43:02;2.13;;;1.33;;
1525;SDS011;756;49.982;8.240;2022-08-01T04:45:30;2.50;;;1.50;;
1525;SDS011;756;49.982;8.240;2022-08-01T04:47:58;6.63;;;1.60;;
1525;SDS011;756;49.982;8.240;2022-08-01T04:50:26;1.20;;;1.10;;
1525;SDS011;756;49.982;8.240;2022-08-01T04:52:53;1.43;;;1.33;;
1525;SDS011;756;49.982;8.240;2022-08-01T04:55:20;1.50;;;1.40;;
1525;SDS011;756;49.982;8.240;2022-08-01T04:57:47;1.37;;;1.27;;
1525;SDS011;756;49.982;8.240;2022-08-01T05:00:14;1.73;;;1.40;;
1525;SDS011;756;49.982;8.240;2022-08-01T05:02:45;1.80;;;1.57;;
1525;SDS011;756;49.982;8.240;2022-08-01T05:05:13;1.87;;;1.30;;
1525;SDS011;756;49.982;8.240;2022-08-01T05:07:40;2.50;;;1.83;;
1525;SDS011;756;49.982;8.240;2022-08-01T05:10:10;2.60;;;1.70;;
1525;SDS011;756;49.982;8.240;2022-08-01T05:12:37;1.87;;;1.67;;
1525;SDS011;756;49.982;8.240;2022-08-01T05:15:04;1.67;;;1.27;;
1525;SDS011;756;49.982;8.240;2022-08-01T05:17:40;5.17;;;1.67;;
1525;SDS011;756;49.982;8.240;2022-08-01T05:20:08;5.57;;;1.80;;
1525;SDS011;756;49.982;8.240;2022-08-01T05:22:36;1.50;;;1.37;;
1525;SDS011;756;49.982;8.240;2022-08-01T05:25:03;2.20;;;1.40;;
1525;SDS011;756;49.982;8.240;2022-08-01T05:27:31;2.60;;;2.40;;
1525;SDS011;756;49.982;8.240;2022-08-01T05:29:59;1.33;;;1.20;;
1525;SDS011;756;49.982;8.240;2022-08-01T05:32:25;1.70;;;1.40;;
1525;SDS011;756;49.982;8.240;2022-08-01T05:34:53;2.67;;;1.43;;
1525;SDS011;756;49.982;8.240;2022-08-01T05:37:19;1.70;;;1.60;;
1525;SDS011;756;49.982;8.240;2022-08-01T05:39:46;2.03;;;1.67;;
1525;SDS011;756;49.982;8.240;2022-08-01T05:42:13;1.53;;;1.43;;
1525;SDS011;756;49.982;8.240;2022-08-01T05:44:40;2.90;;;2.00;;
1525;SDS011;756;49.982;8.240;2022-08-01T05:47:07;3.57;;;2.20;;
1525;SDS011;756;49.982;8.240;2022-08-01T05:49:33;2.23;;;1.63;;
1525;SDS011;756;49.982;8.240;2022-08-01T05:52:00;1.63;;;1.53;;
1525;SDS011;756;49.982;8.240;2022-08-01T05:54:28;1.47;;;1.17;;
1525;SDS011;756;49.982;8.240;2022-08-01T05:56:55;1.70;;;1.60;;
1525;SDS011;756;49.982;8.240;2022-08-01T05:59:25;2.50;;;2.30;;
1525;SDS011;756;49.982;8.240;2022-08-01T06:01:52;1.90;;;1.80;;
1525;SDS011;756;49.982;8.240;2022-08-01T06:04:19;1.67;;;1.57;;
1525;SDS011;756;49.982;8.240;2022-08-01T06:06:46;2.30;;;2.10;;
1525;SDS011;756;49.982;8.240;2022-08-01T06:09:13;2.30;;;2.10;;
1525;SDS011;756;49.982;8.240;2022-08-01T06:11:40;1.30;;;1.20;;
1525;SDS011;756;49.982;8.240;2022-08-01T06:14:07;1.47;;;1.37;;
1525;SDS011;756;49.982;8.240;2022-08-01T06:16:33;1.70;;;1.60;;
1525;SDS011;756;49.982;8.240;2022-08-01T06:19:00;4.07;;;1.80;;
1525;SDS011;756;49.982;8.240;2022-08-01T06:21:27;6.80;;;1.80;;
1525;SDS011;756;49.982;8.240;2022-08-01T06:23:54;1.40;;;1.30;;
1525;SDS011;756;49.982;8.240;2022-08-01T06:26:20;2.23;;;1.53;;
1525;SDS011;756;49.982;8.240;2022-08-01T06:28:47;1.50;;;1.40;;
1525;SDS011;756;49.982;8.240;2022-08-01T06:31:14;1.30;;;1.20;;
1525;SDS011;756;49.982;8.240;2022-08-01T06:33:41;2.27;;;1.90;;
1525;SDS011;756;49.982;8.240;2022-08-01T06:36:08;1.87;;;1.73;;
1525;SDS011;756;49.982;8.240;2022-08-01T06:38:35;1.70;;;1.40;;
1525;SDS011;756;49.982;8.240;2022-08-01T06:41:02;2.03;;;1.63;;
1525;SDS011;756;49.982;8.240;2022-08-01T06:43:29;3.07;;;2.13;;
1525;SDS011;756;49.982;8.240;2022-08-01T06:45:56;2.90;;;1.70;;
1525;SDS011;756;49.982;8.240;2022-08-01T06:48:23;3.00;;;1.57;;
1525;SDS011;756;49.982;8.240;2022-08-01T06:50:50;1.90;;;1.80;;
1525;SDS011;756;49.982;8.240;2022-08-01T06:53:36;2.23;;;2.03;;
1525;SDS011;756;49.982;8.240;2022-08-01T06:56:04;2.10;;;1.90;;
1525;SDS011;756;49.982;8.240;2022-08-01T06:58:32;3.03;;;1.93;;
1525;SDS011;756;49.982;8.240;2022-08-01T07:01:02;2.60;;;2.00;;
1525;SDS011;756;49.982;8.240;2022-08-01T07:03:32;2.20;;;2.00;;
1525;SDS011;756;49.982;8.240;2022-08-01T07:06:19;2.40;;;1.70;;
1525;SDS011;756;49.982;8.240;2022-08-01T07:08:46;2.03;;;1.83;;
1525;SDS011;756;49.982;8.240;2022-08-01T07:11:13;1.60;;;1.50;;
1525;SDS011;756;49.982;8.240;2022-08-01T07:13:40;10.13;;;2.03;;
1525;SDS011;756;49.982;8.240;2022-08-01T07:16:11;2.20;;;1.80;;
1525;SDS011;756;49.982;8.240;2022-08-01T07:18:38;3.80;;;2.10;;
1525;SDS011;756;49.982;8.240;2022-08-01T07:21:05;2.27;;;2.17;;
1525;SDS011;756;49.982;8.240;2022-08-01T07:23:41;3.40;;;2.13;;
1525;SDS011;756;49.982;8.240;2022-08-01T07:26:11;2.40;;;2.20;;
1525;SDS011;756;49.982;8.240;2022-08-01T07:28:39;2.47;;;2.20;;
1525;SDS011;756;49.982;8.240;2022-08-01T07:31:09;3.13;;;2.10;;
1525;SDS011;756;49.982;8.240;2022-08-01T07:33:36;2.70;;;2.33;;
1525;SDS011;756;49.982;8.240;2022-08-01T07:36:14;2.80;;;2.07;;
1525;SDS011;756;49.982;8.240;2022-08-01T07:38:42;2.63;;;2.43;;
1525;SDS011;756;49.982;8.240;2022-08-01T07:41:09;2.77;;;2.57;;
1525;SDS011;756;49.982;8.240;2022-08-01T07:43:36;2.47;;;2.30;;
1525;SDS011;756;49.982;8.240;2022-08-01T07:46:03;3.00;;;2.70;;
1525;SDS011;756;49.982;8.240;2022-08-01T07:48:30;2.97;;;2.33;;
1525;SDS011;756;49.982;8.240;2022-08-01T07:50:57;3.70;;;3.20;;
1525;SDS011;756;49.982;8.240;2022-08-01T07:53:24;4.33;;;2.33;;
1525;SDS011;756;49.982;8.240;2022-08-01T07:55:50;2.67;;;2.47;;
1525;SDS011;756;49.982;8.240;2022-08-01T07:58:20;2.70;;;2.50;;
1525;SDS011;756;49.982;8.240;2022-08-01T08:00:47;2.43;;;2.27;;
1525;SDS011;756;49.982;8.240;2022-08-01T08:03:14;3.00;;;2.80;;
1525;SDS011;756;49.982;8.240;2022-08-01T08:05:41;2.80;;;2.60;;
1525;SDS011;756;49.982;8.240;2022-08-01T08:08:24;4.83;;;2.70;;
1525;SDS011;756;49.982;8.240;2022-08-01T08:10:51;3.00;;;2.77;;
1525;SDS011;756;49.982;8.240;2022-08-01T08:13:17;2.70;;;2.50;;
1525;SDS011;756;49.982;8.240;2022-08-01T08:15:46;3.83;;;2.67;;
1525;SDS011;756;49.982;8.240;2022-08-01T08:18:13;3.23;;;2.37;;
1525;SDS011;756;49.982;8.240;2022-08-01T08:20:40;2.70;;;2.50;;
1525;SDS011;756;49.982;8.240;2022-08-01T08:23:07;3.87;;;2.50;;
1525;SDS011;756;49.982;8.240;2022-08-01T08:26:09;2.60;;;2.40;;
1525;SDS011;756;49.982;8.240;2022-08-01T08:28:37;2.83;;;2.63;;
1525;SDS011;756;49.982;8.240;2022-08-01T08:31:06;2.80;;;2.60;;
1525;SDS011;756;49.982;8.240;2022-08-01T08:33:51;3.27;;;2.97;;
1525;SDS011;756;49.982;8.240;2022-08-01T08:36:17;2.77;;;2.57;;
1525;SDS011;756;49.982;8.240;2022-08-01T08:38:44;3.17;;;2.87;;
1525;SDS011;756;49.982;8.240;2022-08-01T08:41:11;2.20;;;2.10;;
1525;SDS011;756;49.982;8.240;2022-08-01T08:43:45;3.33;;;3.03;;
1525;SDS011;756;49.982;8.240;2022-08-01T08:46:12;2.63;;;2.43;;
1525;SDS011;756;49.982;8.240;2022-08-01T08:48:40;2.80;;;2.50;;
1525;SDS011;756;49.982;8.240;2022-08-01T08:51:08;2.80;;;2.60;;
1525;SDS011;756;49.982;8.240;2022-08-01T08:53:38;3.90;;;2.90;;
1525;SDS011;756;49.982;8.240;2022-08-01T08:56:13;3.47;;;3.27;;
1525;SDS011;756;49.982;8.240;2022-08-01T08:58:41;3.20;;;2.50;;
1525;SDS011;756;49.982;8.240;2022-08-01T09:01:11;3.40;;;3.07;;
1525;SDS011;756;49.982;8.240;2022-08-01T09:03:39;3.90;;;3.23;;
1525;SDS011;756;49.982;8.240;2022-08-01T09:06:06;3.50;;;2.70;;
1525;SDS011;756;49.982;8.240;2022-08-01T09:08:34;3.50;;;3.20;;
1525;SDS011;756;49.982;8.240;2022-08-01T09:11:01;3.63;;;3.30;;
1525;SDS011;756;49.982;8.240;2022-08-01T09:13:28;2.93;;;2.70;;
1525;SDS011;756;49.982;8.240;2022-08-01T09:15:55;2.70;;;2.50;;
1525;SDS011;756;49.982;8.240;2022-08-01T09:21:18;5.80;;;3.60;;
1525;SDS011;756;49.982;8.240;2022-08-01T09:23:48;3.60;;;3.30;;
1525;SDS011;756;49.982;8.240;2022-08-01T09:26:30;2.63;;;2.43;;
1525;SDS011;756;49.982;8.240;2022-08-01T09:28:59;3.27;;;2.97;;
1525;SDS011;756;49.982;8.240;2022-08-01T09:31:39;3.23;;;2.93;;
1525;SDS011;756;49.982;8.240;2022-08-01T09:34:13;3.23;;;2.93;;
1525;SDS011;756;49.982;8.240;2022-08-01T09:36:44;3.30;;;3.07;;
1525;SDS011;756;49.982;8.240;2022-08-01T09:39:20;2.63;;;2.43;;
1525;SDS011;756;49.982;8.240;2022-08-01T09:41:52;3.70;;;3.40;;
1525;SDS011;756;49.982;8.240;2022-08-01T09:44:38;2.60;;;2.40;;
1525;SDS011;756;49.982;8.240;2022-08-01T09:47:09;3.60;;;2.70;;
1525;SDS011;756;49.982;8.240;2022-08-01T09:49:41;3.10;;;2.90;;
1525;SDS011;756;49.982;8.240;2022-08-01T09:54:56;3.30;;;3.00;;
1525;SDS011;756;49.982;8.240;2022-08-01T09:57:28;3.80;;;2.50;;
1525;SDS011;756;49.982;8.240;2022-08-01T09:59:57;2.87;;;2.67;;
1525;SDS011;756;49.982;8.240;2022-08-01T10:04:57;3.40;;;2.83;;
1525;SDS011;756;49.982;8.240;2022-08-01T10:07:34;2.70;;;2.50;;
1525;SDS011;756;49.982;8.240;2022-08-01T10:10:14;3.30;;;3.00;;
1525;SDS011;756;49.982;8.240;2022-08-01T10:12:42;2.87;;;2.67;;
1525;SDS011;756;49.982;8.240;2022-08-01T10:15:11;3.20;;;2.50;;
1525;SDS011;756;49.982;8.240;2022-08-01T10:17:50;2.43;;;2.00;;
1525;SDS011;756;49.982;8.240;2022-08-01T10:20:20;3.87;;;3.20;;
1525;SDS011;756;49.982;8.240;2022-08-01T10:22:58;4.40;;;2.17;;
1525;SDS011;756;49.982;8.240;2022-08-01T10:25:35;4.73;;;2.27;;
1525;SDS011;756;49.982;8.240;2022-08-01T10:28:13;6.57;;;2.70;;
1525;SDS011;756;49.982;8.240;2022-08-01T10:30:46;4.83;;;2.60;;
1525;SDS011;756;49.982;8.240;2022-08-01T10:33:14;3.00;;;2.43;;
1525;SDS011;756;49.982;8.240;2022-08-01T10:36:02;2.50;;;2.10;;
1525;SDS011;756;49.982;8.240;2022-08-01T10:38:34;2.33;;;2.17;;
1525;SDS011;756;49.982;8.240;2022-08-01T10:41:03;2.50;;;2.30;;
1525;SDS011;756;49.982;8.240;2022-08-01T10:43:33;2.73;;;2.53;;
1525;SDS011;756;49.982;8.240;2022-08-01T10:46:02;2.70;;;2.47;;
1525;SDS011;756;49.982;8.240;2022-08-01T10:51:02;3.17;;;2.10;;
1525;SDS011;756;49.982;8.240;2022-08-01T10:53:50;2.73;;;2.53;;
1525;SDS011;756;49.982;8.240;2022-08-01T10:56:20;3.87;;;2.53;;
1525;SDS011;756;49.982;8.240;2022-08-01T10:59:00;4.87;;;2.63;;
1525;SDS011;756;49.982;8.240;2022-08-01T11:01:36;2.70;;;2.50;;
1525;SDS011;756;49.982;8.240;2022-08-01T11:04:07;2.70;;;2.30;;
1525;SDS011;756;49.982;8.240;2022-08-01T11:06:46;2.73;;;2.53;;
1525;SDS011;756;49.982;8.240;2022-08-01T11:09:38;2.53;;;2.33;;
1525;SDS011;756;49.982;8.240;2022-08-01T11:12:06;3.50;;;2.17;;
1525;SDS011;756;49.982;8.240;2022-08-01T11:17:31;2.43;;;2.23;;
1525;SDS011;756;49.982;8.240;2022-08-01T11:20:15;2.93;;;2.60;;
1525;SDS011;756;49.982;8.240;2022-08-01T11:28:32;2.63;;;2.43;;
1525;SDS011;756;49.982;8.240;2022-08-01T11:38:43;2.70;;;2.40;;
1525;SDS011;756;49.982;8.240;2022-08-01T11:57:28;3.87;;;2.17;;
1525;SDS011;756;49.982;8.240;2022-08-01T12:00:05;2.50;;;2.30;;
1525;SDS011;756;49.982;8.240;2022-08-01T12:02:44;2.40;;;2.20;;
1525;SDS011;756;49.982;8.240;2022-08-01T12:05:13;3.43;;;2.50;;
1525;SDS011;756;49.982;8.240;2022-08-01T12:07:44;2.70;;;2.50;;
1525;SDS011;756;49.982;8.240;2022-08-01T12:10:13;2.40;;;2.20;;
1525;SDS011;756;49.982;8.240;2022-08-01T12:12:45;2.07;;;1.97;;
1525;SDS011;756;49.982;8.240;2022-08-01T12:15:17;2.37;;;2.17;;
1525;SDS011;756;49.982;8.240;2022-08-01T12:17:46;2.77;;;2.57;;
1525;SDS011;756;49.982;8.240;2022-08-01T12:20:25;2.37;;;2.10;;
1525;SDS011;756;49.982;8.240;2022-08-01T12:22:58;2.03;;;1.93;;
1525;SDS011;756;49.982;8.240;2022-08-01T12:25:26;2.87;;;2.10;;
1525;SDS011;756;49.982;8.240;2022-08-01T12:27:54;3.60;;;2.33;;
1525;SDS011;756;49.982;8.240;2022-08-01T12:30:22;2.20;;;2.10;;
1525;SDS011;756;49.982;8.240;2022-08-01T12:32:53;4.50;;;2.20;;
1525;SDS011;756;49.982;8.240;2022-08-01T12:35:22;2.40;;;2.20;;
1525;SDS011;756;49.982;8.240;2022-08-01T12:37:55;2.80;;;2.60;;
1525;SDS011;756;49.982;8.240;2022-08-01T12:40:24;2.60;;;2.40;;
1525;SDS011;756;49.982;8.240;2022-08-01T12:42:56;3.00;;;2.70;;
1525;SDS011;756;49.982;8.240;2022-08-01T12:45:25;2.60;;;2.40;;
1525;SDS011;756;49.982;8.240;2022-08-01T12:47:57;2.33;;;2.23;;
1525;SDS011;756;49.982;8.240;2022-08-01T12:50:30;3.20;;;2.63;;
1525;SDS011;756;49.982;8.240;2022-08-01T12:52:59;2.97;;;2.03;;
1525;SDS011;756;49.982;8.240;2022-08-01T12:55:26;3.83;;;2.53;;
1525;SDS011;756;49.982;8.240;2022-08-01T12:58:04;2.73;;;2.27;;
1525;SDS011;756;49.982;8.240;2022-08-01T13:00:42;1.97;;;1.80;;
1525;SDS011;756;49.982;8.240;2022-08-01T13:03:12;2.20;;;2.03;;
1525;SDS011;756;49.982;8.240;2022-08-01T13:05:47;2.50;;;2.30;;
1525;SDS011;756;49.982;8.240;2022-08-01T13:11:04;2.70;;;2.50;;
1525;SDS011;756;49.982;8.240;2022-08-01T13:13:43;2.67;;;2.47;;
1525;SDS011;756;49.982;8.240;2022-08-01T13:16:15;5.73;;;2.20;;
1525;SDS011;756;49.982;8.240;2022-08-01T13:19:03;2.87;;;2.67;;
1525;SDS011;756;49.982;8.240;2022-08-01T13:21:32;2.60;;;2.37;;
1525;SDS011;756;49.982;8.240;2022-08-01T13:24:22;3.00;;;2.10;;
1525;SDS011;756;49.982;8.240;2022-08-01T13:26:53;2.90;;;2.60;;
1525;SDS011;756;49.982;8.240;2022-08-01T13:32:00;2.23;;;2.03;;
1525;SDS011;756;49.982;8.240;2022-08-01T13:35:05;3.50;;;2.00;;
1525;SDS011;756;49.982;8.240;2022-08-01T13:37:34;2.83;;;2.50;;
1525;SDS011;756;49.982;8.240;2022-08-01T13:40:04;2.60;;;2.40;;
1525;SDS011;756;49.982;8.240;2022-08-01T13:42:32;4.53;;;2.73;;
1525;SDS011;756;49.982;8.240;2022-08-01T13:44:59;2.87;;;2.43;;
1525;SDS011;756;49.982;8.240;2022-08-01T13:47:39;2.73;;;2.30;;
1525;SDS011;756;49.982;8.240;2022-08-01T13:50:26;2.23;;;2.00;;
1525;SDS011;756;49.982;8.240;2022-08-01T13:52:52;1.87;;;1.77;;
1525;SDS011;756;49.982;8.240;2022-08-01T13:55:19;4.80;;;2.60;;
1525;SDS011;756;49.982;8.240;2022-08-01T13:57:46;6.53;;;2.80;;
1525;SDS011;756;49.982;8.240;2022-08-01T14:00:13;2.27;;;2.07;;
1525;SDS011;756;49.982;8.240;2022-08-01T14:02:40;2.43;;;2.23;;
1525;SDS011;756;49.982;8.240;2022-08-01T14:05:06;2.43;;;2.23;;
1525;SDS011;756;49.982;8.240;2022-08-01T14:07:33;2.53;;;2.33;;
1525;SDS011;756;49.982;8.240;2022-08-01T14:10:03;2.70;;;2.50;;
1525;SDS011;756;49.982;8.240;2022-08-01T14:12:45;2.63;;;2.43;;
1525;SDS011;756;49.982;8.240;2022-08-01T14:15:13;2.33;;;2.13;;
1525;SDS011;756;49.982;8.240;2022-08-01T14:17:51;2.77;;;2.33;;
1525;SDS011;756;49.982;8.240;2022-08-01T14:20:18;2.83;;;2.37;;
1525;SDS011;756;49.982;8.240;2022-08-01T14:22:46;2.33;;;2.13;;
1525;SDS011;756;49.982;8.240;2022-08-01T14:25:13;3.90;;;2.23;;
1525;SDS011;756;49.982;8.240;2022-08-01T14:28:00;2.13;;;1.93;;
1525;SDS011;756;49.982;8.240;2022-08-01T14:30:30;2.60;;;2.40;;
1525;SDS011;756;49.982;8.240;2022-08-01T14:32:58;2.13;;;2.03;;
1525;SDS011;756;49.982;8.240;2022-08-01T14:35:25;3.63;;;2.90;;
1525;SDS011;756;49.982;8.240;2022-08-01T14:37:52;2.80;;;2.60;;
1525;SDS011;756;49.982;8.240;2022-08-01T14:40:22;2.70;;;2.17;;
1525;SDS011;756;49.982;8.240;2022-08-01T14:42:49;3.30;;;2.97;;
1525;SDS011;756;49.982;8.240;2022-08-01T14:45:16;2.73;;;2.53;;
1525;SDS011;756;49.982;8.240;2022-08-01T14:47:43;2.77;;;2.57;;
1525;SDS011;756;49.982;8.240;2022-08-01T14:50:10;2.93;;;2.57;;
1525;SDS011;756;49.982;8.240;2022-08-01T14:52:39;3.03;;;2.73;;
1525;SDS011;756;49.982;8.240;2022-08-01T14:55:07;3.87;;;3.37;;
1525;SDS011;756;49.982;8.240;2022-08-01T14:57:36;3.10;;;2.90;;
1525;SDS011;756;49.982;8.240;2022-08-01T15:00:05;4.20;;;3.80;;
1525;SDS011;756;49.982;8.240;2022-08-01T15:02:34;5.80;;;3.60;;
1525;SDS011;756;49.982;8.240;2022-08-01T15:05:01;4.20;;;3.90;;
1525;SDS011;756;49.982;8.240;2022-08-01T15:07:27;3.60;;;3.30;;
1525;SDS011;756;49.982;8.240;2022-08-01T15:09:55;4.93;;;4.10;;
1525;SDS011;756;49.982;8.240;2022-08-01T15:12:22;6.20;;;3.50;;
1525;SDS011;756;49.982;8.240;2022-08-01T15:14:48;4.60;;;4.10;;
1525;SDS011;756;49.982;8.240;2022-08-01T15:17:20;3.77;;;3.37;;
1525;SDS011;756;49.982;8.240;2022-08-01T15:19:51;3.90;;;3.43;;
1525;SDS011;756;49.982;8.240;2022-08-01T15:22:20;4.10;;;3.80;;
1525;SDS011;756;49.982;8.240;2022-08-01T15:24:48;4.30;;;3.70;;
1525;SDS011;756;49.982;8.240;2022-08-01T15:27:22;4.37;;;4.00;;
1525;SDS011;756;49.982;8.240;2022-08-01T15:29:49;4.03;;;3.73;;
1525;SDS011;756;49.982;8.240;2022-08-01T15:32:16;5.33;;;3.87;;
1525;SDS011;756;49.982;8.240;2022-08-01T15:34:43;4.33;;;4.00;;
1525;SDS011;756;49.982;8.240;2022-08-01T15:37:10;5.03;;;4.47;;
1525;SDS011;756;49.982;8.240;2022-08-01T15:39:37;5.53;;;5.03;;
1525;SDS011;756;49.982;8.240;2022-08-01T15:42:06;4.57;;;4.17;;
1525;SDS011;756;49.982;8.240;2022-08-01T15:44:44;5.77;;;4.60;;
1525;SDS011;756;49.982;8.240;2022-08-01T15:47:11;3.93;;;3.63;;
1525;SDS011;756;49.982;8.240;2022-08-01T15:49:38;4.57;;;4.17;;
1525;SDS011;756;49.982;8.240;2022-08-01T15:52:06;4.53;;;4.23;;
1525;SDS011;756;49.982;8.240;2022-08-01T15:54:47;4.00;;;3.70;;
1525;SDS011;756;49.982;8.240;2022-08-01T15:57:14;7.47;;;4.30;;
1525;SDS011;756;49.982;8.240;2022-08-01T15:59:41;4.03;;;3.73;;
1525;SDS011;756;49.982;8.240;2022-08-01T16:02:08;4.97;;;4.03;;
1525;SDS011;756;49.982;8.240;2022-08-01T16:04:36;4.23;;;3.93;;
1525;SDS011;756;49.982;8.240;2022-08-01T16:07:04;4.00;;;3.60;;
1525;SDS011;756;49.982;8.240;2022-08-01T16:09:31;3.57;;;3.27;;
1525;SDS011;756;49.982;8.240;2022-08-01T16:11:58;3.90;;;3.57;;
1525;SDS011;756;49.982;8.240;2022-08-01T16:14:24;3.60;;;3.30;;
1525;SDS011;756;49.982;8.240;2022-08-01T16:16:51;3.73;;;3.43;;
1525;SDS011;756;49.982;8.240;2022-08-01T16:19:20;3.63;;;3.30;;
1525;SDS011;756;49.982;8.240;2022-08-01T16:21:48;4.20;;;3.60;;
1525;SDS011;756;49.982;8.240;2022-08-01T16:24:16;3.67;;;3.30;;
1525;SDS011;756;49.982;8.240;2022-08-01T16:26:43;3.87;;;3.50;;
1525;SDS011;756;49.982;8.240;2022-08-01T16:29:10;5.60;;;3.80;;
1525;SDS011;756;49.982;8.240;2022-08-01T16:31:37;4.30;;;3.60;;
1525;SDS011;756;49.982;8.240;2022-08-01T16:34:23;4.43;;;3.23;;
1525;SDS011;756;49.982;8.240;2022-08-01T16:36:50;4.00;;;2.90;;
1525;SDS011;756;49.982;8.240;2022-08-01T16:39:18;5.47;;;3.50;;
1525;SDS011;756;49.982;8.240;2022-08-01T16:41:49;3.77;;;3.00;;
1525;SDS011;756;49.982;8.240;2022-08-01T16:44:20;3.10;;;2.90;;
1525;SDS011;756;49.982;8.240;2022-08-01T16:46:59;3.60;;;3.30;;
1525;SDS011;756;49.982;8.240;2022-08-01T16:49:26;3.70;;;3.40;;
1525;SDS011;756;49.982;8.240;2022-08-01T16:51:53;3.50;;;3.30;;